sensor_id;sensor_type;location;lat;lon;timestamp;P1;durP1;ratioP1;P2;durP2;ratioP2
79403;SDS011;68858;48.642;9.142;2023-04-01T00:01:31;2.80;;;0.90;;
79403;SDS011;68858;48.642;9.142;2023-04-01T00:03:57;4.73;;;1.20;;
79403;SDS011;68858;48.642;9.142;2023-04-01T00:06:23;4.07;;;1.20;;
79403;SDS011;68858;48.642;9.142;2023-04-01T00:08:49;2.33;;;0.93;;
79403;SDS011;68858;48.642;9.142;2023-04-01T00:11:16;4.03;;;1.30;;
79403;SDS011;68858;48.642;9.142;2023-04-01T00:13:42;2.27;;;1.10;;
79403;SDS011;68858;48.642;9.142;2023-04-01T00:16:08;3.27;;;1.00;;
79403;SDS011;68858;48.642;9.142;2023-04-01T00:18:35;3.43;;;1.00;;
79403;SDS011;68858;48.642;9.142;2023-04-01T00:21:01;3.13;;;1.20;;
79403;SDS011;68858;48.642;9.142;2023-04-01T00:23:27;2.60;;;0.80;;
79403;SDS011;68858;48.642;9.142;2023-04-01T00:25:53;1.73;;;0.80;;
79403;SDS011;68858;48.642;9.142;2023-04-01T00:28:21;4.70;;;1.40;;
79403;SDS011;68858;48.642;9.142;2023-04-01T00:30:47;4.40;;;0.97;;
79403;SDS011;68858;48.642;9.142;2023-04-01T00:33:13;3.97;;;1.17;;
79403;SDS011;68858;48.642;9.142;2023-04-01T00:35:39;3.90;;;1.20;;
79403;SDS011;68858;48.642;9.142;2023-04-01T00:38:06;3.30;;;0.80;;
79403;SDS011;68858;48.642;9.142;2023-04-01T00:42:59;1.77;;;0.83;;
79403;SDS011;68858;48.642;9.142;2023-04-01T00:45:39;3.63;;;0.63;;
79403;SDS011;68858;48.642;9.142;2023-04-01T00:48:07;2.57;;;1.10;;
79403;SDS011;68858;48.642;9.142;2023-04-01T00:50:34;1.27;;;0.83;;
79403;SDS011;68858;48.642;9.142;2023-04-01T00:53:01;2.17;;;0.80;;
79403;SDS011;68858;48.642;9.142;2023-04-01T00:55:28;3.17;;;1.00;;
79403;SDS011;68858;48.642;9.142;2023-04-01T00:57:55;2.23;;;0.80;;
79403;SDS011;68858;48.642;9.142;2023-04-01T01:00:22;1.27;;;0.70;;
79403;SDS011;68858;48.642;9.142;2023-04-01T01:02:48;1.90;;;0.63;;
79403;SDS011;68858;48.642;9.142;2023-04-01T01:05:16;2.87;;;0.80;;
79403;SDS011;68858;48.642;9.142;2023-04-01T01:10:30;1.10;;;0.77;;
79403;SDS011;68858;48.642;9.142;2023-04-01T01:13:04;1.77;;;0.70;;
79403;SDS011;68858;48.642;9.142;2023-04-01T01:20:57;2.33;;;0.70;;
79403;SDS011;68858;48.642;9.142;2023-04-01T01:29:08;1.97;;;0.70;;
79403;SDS011;68858;48.642;9.142;2023-04-01T01:31:47;1.17;;;0.70;;
79403;SDS011;68858;48.642;9.142;2023-04-01T01:34:22;0.97;;;0.83;;
79403;SDS011;68858;48.642;9.142;2023-04-01T01:36:52;2.80;;;0.70;;
79403;SDS011;68858;48.642;9.142;2023-04-01T01:39:18;1.33;;;0.70;;
79403;SDS011;68858;48.642;9.142;2023-04-01T01:41:45;2.33;;;0.70;;
79403;SDS011;68858;48.642;9.142;2023-04-01T01:44:14;3.00;;;0.93;;
79403;SDS011;68858;48.642;9.142;2023-04-01T01:46:42;1.13;;;0.73;;
79403;SDS011;68858;48.642;9.142;2023-04-01T01:49:08;5.03;;;1.27;;
79403;SDS011;68858;48.642;9.142;2023-04-01T01:51:36;2.73;;;0.83;;
79403;SDS011;68858;48.642;9.142;2023-04-01T01:54:02;1.67;;;0.60;;
79403;SDS011;68858;48.642;9.142;2023-04-01T01:56:28;2.60;;;0.90;;
79403;SDS011;68858;48.642;9.142;2023-04-01T01:58:59;3.40;;;0.67;;
79403;SDS011;68858;48.642;9.142;2023-04-01T02:01:28;1.77;;;0.70;;
79403;SDS011;68858;48.642;9.142;2023-04-01T02:03:55;0.13;;;0.13;;
79403;SDS011;68858;48.642;9.142;2023-04-01T02:06:22;0.93;;;0.50;;
79403;SDS011;68858;48.642;9.142;2023-04-01T02:09:02;0.97;;;0.47;;
79403;SDS011;68858;48.642;9.142;2023-04-01T02:14:07;0.67;;;0.40;;
79403;SDS011;68858;48.642;9.142;2023-04-01T02:19:17;1.70;;;0.40;;
79403;SDS011;68858;48.642;9.142;2023-04-01T02:21:49;1.13;;;0.63;;
79403;SDS011;68858;48.642;9.142;2023-04-01T02:24:16;1.00;;;0.40;;
79403;SDS011;68858;48.642;9.142;2023-04-01T02:26:43;0.47;;;0.40;;
79403;SDS011;68858;48.642;9.142;2023-04-01T02:29:10;3.20;;;0.60;;
79403;SDS011;68858;48.642;9.142;2023-04-01T02:31:37;2.97;;;0.40;;
79403;SDS011;68858;48.642;9.142;2023-04-01T02:34:03;0.77;;;0.40;;
79403;SDS011;68858;48.642;9.142;2023-04-01T02:36:30;0.70;;;0.40;;
79403;SDS011;68858;48.642;9.142;2023-04-01T02:38:56;2.00;;;0.50;;
79403;SDS011;68858;48.642;9.142;2023-04-01T02:41:27;0.80;;;0.47;;
79403;SDS011;68858;48.642;9.142;2023-04-01T02:43:53;0.50;;;0.30;;
79403;SDS011;68858;48.642;9.142;2023-04-01T02:46:19;0.73;;;0.40;;
79403;SDS011;68858;48.642;9.142;2023-04-01T02:48:45;1.80;;;0.60;;
79403;SDS011;68858;48.642;9.142;2023-04-01T02:51:11;0.53;;;0.40;;
79403;SDS011;68858;48.642;9.142;2023-04-01T02:53:37;0.30;;;0.30;;
79403;SDS011;68858;48.642;9.142;2023-04-01T02:56:03;2.10;;;0.40;;
79403;SDS011;68858;48.642;9.142;2023-04-01T02:58:29;0.50;;;0.40;;
79403;SDS011;68858;48.642;9.142;2023-04-01T03:00:55;0.97;;;0.50;;
79403;SDS011;68858;48.642;9.142;2023-04-01T03:03:21;0.90;;;0.40;;
79403;SDS011;68858;48.642;9.142;2023-04-01T03:05:47;0.30;;;0.10;;
79403;SDS011;68858;48.642;9.142;2023-04-01T03:08:13;0.90;;;0.40;;
79403;SDS011;68858;48.642;9.142;2023-04-01T03:10:40;0.30;;;0.23;;
79403;SDS011;68858;48.642;9.142;2023-04-01T03:13:06;3.17;;;0.70;;
79403;SDS011;68858;48.642;9.142;2023-04-01T03:15:32;0.87;;;0.50;;
79403;SDS011;68858;48.642;9.142;2023-04-01T03:17:58;0.67;;;0.40;;
79403;SDS011;68858;48.642;9.142;2023-04-01T03:20:24;1.03;;;0.50;;
79403;SDS011;68858;48.642;9.142;2023-04-01T03:22:50;0.20;;;0.20;;
79403;SDS011;68858;48.642;9.142;2023-04-01T03:25:16;1.47;;;0.57;;
79403;SDS011;68858;48.642;9.142;2023-04-01T03:27:42;1.93;;;0.60;;
79403;SDS011;68858;48.642;9.142;2023-04-01T03:30:08;0.67;;;0.30;;
79403;SDS011;68858;48.642;9.142;2023-04-01T03:32:34;1.50;;;0.50;;
79403;SDS011;68858;48.642;9.142;2023-04-01T03:35:00;0.30;;;0.30;;
79403;SDS011;68858;48.642;9.142;2023-04-01T03:37:26;0.67;;;0.20;;
79403;SDS011;68858;48.642;9.142;2023-04-01T03:39:52;0.67;;;0.33;;
79403;SDS011;68858;48.642;9.142;2023-04-01T03:42:18;0.57;;;0.40;;
79403;SDS011;68858;48.642;9.142;2023-04-01T03:44:44;0.67;;;0.37;;
79403;SDS011;68858;48.642;9.142;2023-04-01T03:47:10;1.07;;;0.40;;
79403;SDS011;68858;48.642;9.142;2023-04-01T03:49:36;0.80;;;0.33;;
79403;SDS011;68858;48.642;9.142;2023-04-01T03:52:02;0.20;;;0.20;;
79403;SDS011;68858;48.642;9.142;2023-04-01T03:54:28;1.07;;;0.30;;
79403;SDS011;68858;48.642;9.142;2023-04-01T03:56:54;0.90;;;0.40;;
79403;SDS011;68858;48.642;9.142;2023-04-01T03:59:22;0.97;;;0.30;;
79403;SDS011;68858;48.642;9.142;2023-04-01T04:01:48;0.20;;;0.20;;
79403;SDS011;68858;48.642;9.142;2023-04-01T04:04:15;0.27;;;0.23;;
79403;SDS011;68858;48.642;9.142;2023-04-01T04:06:40;1.13;;;0.30;;
79403;SDS011;68858;48.642;9.142;2023-04-01T04:09:06;0.40;;;0.40;;
79403;SDS011;68858;48.642;9.142;2023-04-01T04:11:32;0.50;;;0.50;;
79403;SDS011;68858;48.642;9.142;2023-04-01T04:13:59;0.40;;;0.30;;
79403;SDS011;68858;48.642;9.142;2023-04-01T04:16:25;1.53;;;0.50;;
79403;SDS011;68858;48.642;9.142;2023-04-01T04:18:51;0.87;;;0.40;;
79403;SDS011;68858;48.642;9.142;2023-04-01T04:21:17;0.60;;;0.40;;
79403;SDS011;68858;48.642;9.142;2023-04-01T04:23:43;1.00;;;0.40;;
79403;SDS011;68858;48.642;9.142;2023-04-01T04:26:10;1.30;;;0.40;;
79403;SDS011;68858;48.642;9.142;2023-04-01T04:28:36;0.37;;;0.37;;
79403;SDS011;68858;48.642;9.142;2023-04-01T04:31:03;0.50;;;0.30;;
79403;SDS011;68858;48.642;9.142;2023-04-01T04:33:30;0.60;;;0.30;;
79403;SDS011;68858;48.642;9.142;2023-04-01T04:35:56;2.67;;;0.40;;
79403;SDS011;68858;48.642;9.142;2023-04-01T04:38:23;1.40;;;0.63;;
79403;SDS011;68858;48.642;9.142;2023-04-01T04:40:50;0.50;;;0.43;;
79403;SDS011;68858;48.642;9.142;2023-04-01T04:43:16;1.00;;;0.43;;
79403;SDS011;68858;48.642;9.142;2023-04-01T04:45:42;0.63;;;0.37;;
79403;SDS011;68858;48.642;9.142;2023-04-01T04:48:10;2.20;;;0.60;;
79403;SDS011;68858;48.642;9.142;2023-04-01T04:50:38;1.43;;;0.53;;
79403;SDS011;68858;48.642;9.142;2023-04-01T04:53:05;0.60;;;0.40;;
79403;SDS011;68858;48.642;9.142;2023-04-01T04:55:31;1.47;;;0.50;;
79403;SDS011;68858;48.642;9.142;2023-04-01T04:57:57;2.30;;;0.70;;
79403;SDS011;68858;48.642;9.142;2023-04-01T05:00:23;1.40;;;0.60;;
79403;SDS011;68858;48.642;9.142;2023-04-01T05:02:49;0.60;;;0.60;;
79403;SDS011;68858;48.642;9.142;2023-04-01T05:05:15;0.63;;;0.40;;
79403;SDS011;68858;48.642;9.142;2023-04-01T05:07:41;1.27;;;0.50;;
79403;SDS011;68858;48.642;9.142;2023-04-01T05:10:07;1.03;;;0.67;;
79403;SDS011;68858;48.642;9.142;2023-04-01T05:12:33;4.50;;;0.80;;
79403;SDS011;68858;48.642;9.142;2023-04-01T05:15:03;2.00;;;0.80;;
79403;SDS011;68858;48.642;9.142;2023-04-01T05:17:30;0.40;;;0.30;;
79403;SDS011;68858;48.642;9.142;2023-04-01T05:19:56;2.20;;;0.70;;
79403;SDS011;68858;48.642;9.142;2023-04-01T05:22:22;0.97;;;0.63;;
79403;SDS011;68858;48.642;9.142;2023-04-01T05:24:48;1.53;;;0.60;;
79403;SDS011;68858;48.642;9.142;2023-04-01T05:27:14;0.97;;;0.50;;
79403;SDS011;68858;48.642;9.142;2023-04-01T05:29:40;1.53;;;0.80;;
79403;SDS011;68858;48.642;9.142;2023-04-01T05:32:06;0.93;;;0.40;;
79403;SDS011;68858;48.642;9.142;2023-04-01T05:34:32;1.10;;;0.60;;
79403;SDS011;68858;48.642;9.142;2023-04-01T05:36:58;0.50;;;0.47;;
79403;SDS011;68858;48.642;9.142;2023-04-01T05:39:24;0.90;;;0.70;;
79403;SDS011;68858;48.642;9.142;2023-04-01T05:41:50;1.30;;;0.60;;
79403;SDS011;68858;48.642;9.142;2023-04-01T05:44:16;2.37;;;0.77;;
79403;SDS011;68858;48.642;9.142;2023-04-01T05:46:42;4.37;;;1.13;;
79403;SDS011;68858;48.642;9.142;2023-04-01T05:49:08;1.90;;;0.60;;
79403;SDS011;68858;48.642;9.142;2023-04-01T05:51:34;1.03;;;0.50;;
79403;SDS011;68858;48.642;9.142;2023-04-01T05:54:00;1.40;;;0.77;;
79403;SDS011;68858;48.642;9.142;2023-04-01T05:56:26;1.63;;;0.90;;
79403;SDS011;68858;48.642;9.142;2023-04-01T05:58:53;0.80;;;0.50;;
79403;SDS011;68858;48.642;9.142;2023-04-01T06:01:19;0.97;;;0.50;;
79403;SDS011;68858;48.642;9.142;2023-04-01T06:03:45;1.37;;;0.90;;
79403;SDS011;68858;48.642;9.142;2023-04-01T06:06:20;2.30;;;1.00;;
79403;SDS011;68858;48.642;9.142;2023-04-01T06:08:48;1.07;;;0.50;;
79403;SDS011;68858;48.642;9.142;2023-04-01T06:19:46;1.17;;;0.70;;
79403;SDS011;68858;48.642;9.142;2023-04-01T06:25:20;0.97;;;0.63;;
79403;SDS011;68858;48.642;9.142;2023-04-01T06:29:50;0.93;;;0.50;;
79403;SDS011;68858;48.642;9.142;2023-04-01T06:35:48;2.40;;;0.80;;
79403;SDS011;68858;48.642;9.142;2023-04-01T06:38:07;1.50;;;0.47;;
79403;SDS011;68858;48.642;9.142;2023-04-01T06:40:46;0.63;;;0.57;;
79403;SDS011;68858;48.642;9.142;2023-04-01T06:51:08;2.33;;;0.60;;
79403;SDS011;68858;48.642;9.142;2023-04-01T06:56:15;0.30;;;0.30;;
79403;SDS011;68858;48.642;9.142;2023-04-01T06:58:46;0.93;;;0.57;;
79403;SDS011;68858;48.642;9.142;2023-04-01T07:01:20;1.30;;;0.60;;
79403;SDS011;68858;48.642;9.142;2023-04-01T07:03:49;0.53;;;0.53;;
79403;SDS011;68858;48.642;9.142;2023-04-01T07:06:22;1.73;;;0.57;;
79403;SDS011;68858;48.642;9.142;2023-04-01T07:08:50;2.77;;;0.60;;
79403;SDS011;68858;48.642;9.142;2023-04-01T07:11:24;0.60;;;0.43;;
79403;SDS011;68858;48.642;9.142;2023-04-01T07:13:52;2.00;;;0.80;;
79403;SDS011;68858;48.642;9.142;2023-04-01T07:16:21;1.03;;;0.67;;
79403;SDS011;68858;48.642;9.142;2023-04-01T07:18:54;1.70;;;0.57;;
79403;SDS011;68858;48.642;9.142;2023-04-01T07:21:29;1.10;;;0.60;;
79403;SDS011;68858;48.642;9.142;2023-04-01T07:23:59;1.33;;;0.60;;
79403;SDS011;68858;48.642;9.142;2023-04-01T07:26:26;0.50;;;0.50;;
79403;SDS011;68858;48.642;9.142;2023-04-01T07:28:52;1.10;;;0.53;;
79403;SDS011;68858;48.642;9.142;2023-04-01T07:36:53;1.00;;;0.50;;
79403;SDS011;68858;48.642;9.142;2023-04-01T07:42:05;2.57;;;0.60;;
79403;SDS011;68858;48.642;9.142;2023-04-01T07:52:17;1.83;;;0.93;;
79403;SDS011;68858;48.642;9.142;2023-04-01T07:54:49;2.50;;;0.77;;
79403;SDS011;68858;48.642;9.142;2023-04-01T07:57:23;2.03;;;0.97;;
79403;SDS011;68858;48.642;9.142;2023-04-01T08:04:51;1.73;;;1.00;;
79403;SDS011;68858;48.642;9.142;2023-04-01T08:07:20;1.17;;;0.90;;
79403;SDS011;68858;48.642;9.142;2023-04-01T08:10:00;1.77;;;1.00;;
79403;SDS011;68858;48.642;9.142;2023-04-01T08:12:35;1.90;;;0.80;;
79403;SDS011;68858;48.642;9.142;2023-04-01T08:15:09;2.17;;;0.70;;
79403;SDS011;68858;48.642;9.142;2023-04-01T08:17:40;1.43;;;0.50;;
79403;SDS011;68858;48.642;9.142;2023-04-01T08:20:32;1.73;;;0.80;;
79403;SDS011;68858;48.642;9.142;2023-04-01T08:23:19;1.23;;;0.50;;
79403;SDS011;68858;48.642;9.142;2023-04-01T08:25:49;0.40;;;0.40;;
79403;SDS011;68858;48.642;9.142;2023-04-01T08:28:17;3.37;;;0.80;;
79403;SDS011;68858;48.642;9.142;2023-04-01T08:30:58;1.33;;;0.70;;
79403;SDS011;68858;48.642;9.142;2023-04-01T08:33:26;1.37;;;0.80;;
79403;SDS011;68858;48.642;9.142;2023-04-01T08:35:59;1.17;;;0.63;;
79403;SDS011;68858;48.642;9.142;2023-04-01T08:38:43;2.57;;;0.93;;
79403;SDS011;68858;48.642;9.142;2023-04-01T08:48:44;0.90;;;0.50;;
79403;SDS011;68858;48.642;9.142;2023-04-01T09:06:21;1.63;;;0.70;;
79403;SDS011;68858;48.642;9.142;2023-04-01T09:22:12;0.80;;;0.40;;
79403;SDS011;68858;48.642;9.142;2023-04-01T09:27:33;2.10;;;0.70;;
79403;SDS011;68858;48.642;9.142;2023-04-01T09:35:23;0.70;;;0.47;;
79403;SDS011;68858;48.642;9.142;2023-04-01T09:37:52;1.20;;;0.80;;
79403;SDS011;68858;48.642;9.142;2023-04-01T09:41:01;1.03;;;0.70;;
79403;SDS011;68858;48.642;9.142;2023-04-01T09:43:27;1.97;;;0.70;;
79403;SDS011;68858;48.642;9.142;2023-04-01T09:51:24;2.43;;;0.50;;
79403;SDS011;68858;48.642;9.142;2023-04-01T09:53:59;2.63;;;0.80;;
79403;SDS011;68858;48.642;9.142;2023-04-01T10:04:52;0.60;;;0.50;;
79403;SDS011;68858;48.642;9.142;2023-04-01T10:07:38;0.93;;;0.70;;
79403;SDS011;68858;48.642;9.142;2023-04-01T10:20:55;0.93;;;0.60;;
79403;SDS011;68858;48.642;9.142;2023-04-01T10:28:44;1.43;;;0.40;;
79403;SDS011;68858;48.642;9.142;2023-04-01T10:31:35;0.50;;;0.40;;
79403;SDS011;68858;48.642;9.142;2023-04-01T10:34:13;0.70;;;0.70;;
79403;SDS011;68858;48.642;9.142;2023-04-01T10:36:47;1.33;;;0.70;;
79403;SDS011;68858;48.642;9.142;2023-04-01T10:44:56;0.40;;;0.20;;
79403;SDS011;68858;48.642;9.142;2023-04-01T10:50:16;0.80;;;0.40;;
79403;SDS011;68858;48.642;9.142;2023-04-01T10:53:00;1.90;;;0.30;;
79403;SDS011;68858;48.642;9.142;2023-04-01T11:03:21;1.13;;;0.30;;
79403;SDS011;68858;48.642;9.142;2023-04-01T11:17:10;0.70;;;0.70;;
79403;SDS011;68858;48.642;9.142;2023-04-01T11:25:10;0.30;;;0.30;;
79403;SDS011;68858;48.642;9.142;2023-04-01T11:27:48;0.30;;;0.20;;
79403;SDS011;68858;48.642;9.142;2023-04-01T11:32:51;0.30;;;0.30;;
79403;SDS011;68858;48.642;9.142;2023-04-01T11:40:27;0.50;;;0.50;;
79403;SDS011;68858;48.642;9.142;2023-04-01T11:45:36;0.30;;;0.30;;
79403;SDS011;68858;48.642;9.142;2023-04-01T11:48:13;0.20;;;0.20;;
79403;SDS011;68858;48.642;9.142;2023-04-01T11:53:36;0.27;;;0.27;;
79403;SDS011;68858;48.642;9.142;2023-04-01T11:58:35;0.50;;;0.40;;
79403;SDS011;68858;48.642;9.142;2023-04-01T12:01:13;0.27;;;0.27;;
79403;SDS011;68858;48.642;9.142;2023-04-01T12:03:54;0.30;;;0.30;;
79403;SDS011;68858;48.642;9.142;2023-04-01T12:06:30;0.30;;;0.30;;
79403;SDS011;68858;48.642;9.142;2023-04-01T12:14:30;0.20;;;0.20;;
79403;SDS011;68858;48.642;9.142;2023-04-01T12:17:02;0.30;;;0.30;;
79403;SDS011;68858;48.642;9.142;2023-04-01T12:19:37;0.30;;;0.30;;
79403;SDS011;68858;48.642;9.142;2023-04-01T12:24:44;0.57;;;0.37;;
79403;SDS011;68858;48.642;9.142;2023-04-01T12:27:29;0.20;;;0.20;;
79403;SDS011;68858;48.642;9.142;2023-04-01T12:30:06;0.50;;;0.40;;
79403;SDS011;68858;48.642;9.142;2023-04-01T12:38:14;0.07;;;0.07;;
79403;SDS011;68858;48.642;9.142;2023-04-01T12:40:56;0.40;;;0.40;;
79403;SDS011;68858;48.642;9.142;2023-04-01T12:46:13;0.10;;;0.10;;
79403;SDS011;68858;48.642;9.142;2023-04-01T12:48:50;0.30;;;0.30;;
79403;SDS011;68858;48.642;9.142;2023-04-01T12:54:10;0.30;;;0.30;;
79403;SDS011;68858;48.642;9.142;2023-04-01T12:56:44;0.13;;;0.13;;
79403;SDS011;68858;48.642;9.142;2023-04-01T13:04:28;0.30;;;0.30;;
79403;SDS011;68858;48.642;9.142;2023-04-01T13:07:03;0.13;;;0.13;;
79403;SDS011;68858;48.642;9.142;2023-04-01T13:14:50;0.20;;;0.20;;
79403;SDS011;68858;48.642;9.142;2023-04-01T13:17:22;0.20;;;0.20;;
79403;SDS011;68858;48.642;9.142;2023-04-01T13:20:02;0.20;;;0.20;;
79403;SDS011;68858;48.642;9.142;2023-04-01T13:22:41;0.30;;;0.20;;
79403;SDS011;68858;48.642;9.142;2023-04-01T13:27:44;0.57;;;0.30;;
79403;SDS011;68858;48.642;9.142;2023-04-01T13:33:08;0.30;;;0.30;;
79403;SDS011;68858;48.642;9.142;2023-04-01T13:43:22;0.13;;;0.13;;
79403;SDS011;68858;48.642;9.142;2023-04-01T13:53:59;0.53;;;0.40;;
79403;SDS011;68858;48.642;9.142;2023-04-01T13:56:50;0.50;;;0.50;;
79403;SDS011;68858;48.642;9.142;2023-04-01T13:59:29;0.33;;;0.30;;
79403;SDS011;68858;48.642;9.142;2023-04-01T14:10:05;0.87;;;0.40;;
79403;SDS011;68858;48.642;9.142;2023-04-01T14:12:50;0.33;;;0.33;;
79403;SDS011;68858;48.642;9.142;2023-04-01T14:21:06;0.30;;;0.30;;
79403;SDS011;68858;48.642;9.142;2023-04-01T14:23:37;0.30;;;0.30;;
79403;SDS011;68858;48.642;9.142;2023-04-01T14:28:39;0.40;;;0.40;;
79403;SDS011;68858;48.642;9.142;2023-04-01T14:34:04;0.60;;;0.40;;
79403;SDS011;68858;48.642;9.142;2023-04-01T14:41:47;0.57;;;0.50;;
79403;SDS011;68858;48.642;9.142;2023-04-01T14:49:37;0.50;;;0.50;;
79403;SDS011;68858;48.642;9.142;2023-04-01T14:52:15;0.40;;;0.40;;
79403;SDS011;68858;48.642;9.142;2023-04-01T14:54:44;0.40;;;0.40;;
79403;SDS011;68858;48.642;9.142;2023-04-01T14:57:14;1.50;;;0.70;;
79403;SDS011;68858;48.642;9.142;2023-04-01T15:00:12;0.83;;;0.70;;
79403;SDS011;68858;48.642;9.142;2023-04-01T15:02:33;0.50;;;0.50;;
79403;SDS011;68858;48.642;9.142;2023-04-01T15:07:42;0.87;;;0.63;;
79403;SDS011;68858;48.642;9.142;2023-04-01T15:13:05;1.07;;;0.97;;
79403;SDS011;68858;48.642;9.142;2023-04-01T15:15:45;0.70;;;0.60;;
79403;SDS011;68858;48.642;9.142;2023-04-01T15:18:18;0.80;;;0.70;;
79403;SDS011;68858;48.642;9.142;2023-04-01T15:23:34;0.60;;;0.57;;
79403;SDS011;68858;48.642;9.142;2023-04-01T15:26:20;0.67;;;0.50;;
79403;SDS011;68858;48.642;9.142;2023-04-01T15:31:41;1.03;;;0.70;;
79403;SDS011;68858;48.642;9.142;2023-04-01T15:36:44;0.53;;;0.50;;
79403;SDS011;68858;48.642;9.142;2023-04-01T15:39:30;0.83;;;0.83;;
79403;SDS011;68858;48.642;9.142;2023-04-01T15:45:02;0.87;;;0.60;;
79403;SDS011;68858;48.642;9.142;2023-04-01T15:47:35;1.30;;;1.13;;
79403;SDS011;68858;48.642;9.142;2023-04-01T15:50:19;0.67;;;0.60;;
79403;SDS011;68858;48.642;9.142;2023-04-01T15:55:48;1.07;;;0.60;;
79403;SDS011;68858;48.642;9.142;2023-04-01T16:01:05;2.00;;;1.80;;
79403;SDS011;68858;48.642;9.142;2023-04-01T16:08:56;0.67;;;0.57;;
79403;SDS011;68858;48.642;9.142;2023-04-01T16:14:13;0.73;;;0.73;;
79403;SDS011;68858;48.642;9.142;2023-04-01T16:16:52;0.90;;;0.80;;
79403;SDS011;68858;48.642;9.142;2023-04-01T16:22:08;1.07;;;0.80;;
79403;SDS011;68858;48.642;9.142;2023-04-01T16:24:40;0.80;;;0.60;;
79403;SDS011;68858;48.642;9.142;2023-04-01T16:27:12;2.30;;;1.30;;
79403;SDS011;68858;48.642;9.142;2023-04-01T16:29:50;1.63;;;0.93;;
79403;SDS011;68858;48.642;9.142;2023-04-01T16:35:12;1.20;;;0.80;;
79403;SDS011;68858;48.642;9.142;2023-04-01T16:37:43;2.53;;;1.00;;
79403;SDS011;68858;48.642;9.142;2023-04-01T16:42:58;1.77;;;0.80;;
79403;SDS011;68858;48.642;9.142;2023-04-01T16:48:18;0.97;;;0.90;;
79403;SDS011;68858;48.642;9.142;2023-04-01T16:50:51;2.00;;;1.00;;
79403;SDS011;68858;48.642;9.142;2023-04-01T16:53:21;0.80;;;0.80;;
79403;SDS011;68858;48.642;9.142;2023-04-01T16:58:27;1.67;;;0.80;;
79403;SDS011;68858;48.642;9.142;2023-04-01T17:01:07;0.93;;;0.70;;
79403;SDS011;68858;48.642;9.142;2023-04-01T17:03:41;1.10;;;0.70;;
79403;SDS011;68858;48.642;9.142;2023-04-01T17:14:13;0.80;;;0.80;;
79403;SDS011;68858;48.642;9.142;2023-04-01T17:24:32;2.40;;;0.90;;
79403;SDS011;68858;48.642;9.142;2023-04-01T17:27:04;1.03;;;0.60;;
79403;SDS011;68858;48.642;9.142;2023-04-01T17:32:29;0.77;;;0.63;;
79403;SDS011;68858;48.642;9.142;2023-04-01T17:40:20;2.30;;;1.33;;
79403;SDS011;68858;48.642;9.142;2023-04-01T17:42:57;1.73;;;1.20;;
79403;SDS011;68858;48.642;9.142;2023-04-01T17:46:11;2.00;;;1.00;;
79403;SDS011;68858;48.642;9.142;2023-04-01T17:48:21;1.37;;;0.90;;
79403;SDS011;68858;48.642;9.142;2023-04-01T17:51:05;1.60;;;1.10;;
79403;SDS011;68858;48.642;9.142;2023-04-01T17:53:34;0.80;;;0.80;;
79403;SDS011;68858;48.642;9.142;2023-04-01T17:56:08;2.57;;;1.27;;
79403;SDS011;68858;48.642;9.142;2023-04-01T17:58:41;2.80;;;1.10;;
79403;SDS011;68858;48.642;9.142;2023-04-01T18:03:44;1.57;;;0.73;;
79403;SDS011;68858;48.642;9.142;2023-04-01T18:06:17;1.27;;;1.00;;
79403;SDS011;68858;48.642;9.142;2023-04-01T18:08:58;1.10;;;0.90;;
79403;SDS011;68858;48.642;9.142;2023-04-01T18:13:55;1.10;;;0.90;;
79403;SDS011;68858;48.642;9.142;2023-04-01T18:16:30;1.77;;;1.00;;
79403;SDS011;68858;48.642;9.142;2023-04-01T18:24:13;2.17;;;0.93;;
79403;SDS011;68858;48.642;9.142;2023-04-01T18:26:42;1.00;;;0.90;;
79403;SDS011;68858;48.642;9.142;2023-04-01T18:29:24;1.47;;;1.00;;
79403;SDS011;68858;48.642;9.142;2023-04-01T18:31:54;1.70;;;1.50;;
79403;SDS011;68858;48.642;9.142;2023-04-01T18:34:47;3.10;;;1.30;;
79403;SDS011;68858;48.642;9.142;2023-04-01T18:37:19;1.53;;;1.00;;
79403;SDS011;68858;48.642;9.142;2023-04-01T18:39:52;1.27;;;1.00;;
79403;SDS011;68858;48.642;9.142;2023-04-01T18:45:27;1.20;;;1.00;;
79403;SDS011;68858;48.642;9.142;2023-04-01T18:48:03;1.13;;;0.80;;
79403;SDS011;68858;48.642;9.142;2023-04-01T18:50:43;1.90;;;1.20;;
79403;SDS011;68858;48.642;9.142;2023-04-01T18:53:28;1.70;;;0.90;;
79403;SDS011;68858;48.642;9.142;2023-04-01T18:55:55;0.67;;;0.67;;
79403;SDS011;68858;48.642;9.142;2023-04-01T18:58:23;3.13;;;1.00;;
79403;SDS011;68858;48.642;9.142;2023-04-01T19:01:02;2.37;;;1.10;;
79403;SDS011;68858;48.642;9.142;2023-04-01T19:06:00;2.97;;;1.50;;
79403;SDS011;68858;48.642;9.142;2023-04-01T19:18:30;4.30;;;2.20;;
79403;SDS011;68858;48.642;9.142;2023-04-01T19:21:01;7.00;;;3.40;;
79403;SDS011;68858;48.642;9.142;2023-04-01T19:26:17;3.93;;;3.53;;
79403;SDS011;68858;48.642;9.142;2023-04-01T19:28:49;5.30;;;4.80;;
79403;SDS011;68858;48.642;9.142;2023-04-01T19:42:18;2.47;;;2.03;;
79403;SDS011;68858;48.642;9.142;2023-04-01T19:44:51;5.60;;;2.20;;
79403;SDS011;68858;48.642;9.142;2023-04-01T19:52:48;2.50;;;1.57;;
79403;SDS011;68858;48.642;9.142;2023-04-01T19:55:25;1.73;;;1.50;;
79403;SDS011;68858;48.642;9.142;2023-04-01T20:00:44;3.33;;;2.53;;
79403;SDS011;68858;48.642;9.142;2023-04-01T20:08:34;2.57;;;1.63;;
79403;SDS011;68858;48.642;9.142;2023-04-01T20:11:14;2.00;;;1.77;;
79403;SDS011;68858;48.642;9.142;2023-04-01T20:16:08;2.50;;;2.00;;
79403;SDS011;68858;48.642;9.142;2023-04-01T20:21:23;1.93;;;1.70;;
79403;SDS011;68858;48.642;9.142;2023-04-01T20:23:53;3.17;;;2.70;;
79403;SDS011;68858;48.642;9.142;2023-04-01T20:26:22;4.27;;;3.83;;
79403;SDS011;68858;48.642;9.142;2023-04-01T20:29:04;5.27;;;4.70;;
79403;SDS011;68858;48.642;9.142;2023-04-01T20:31:42;7.63;;;5.70;;
79403;SDS011;68858;48.642;9.142;2023-04-01T20:39:32;4.30;;;3.90;;
79403;SDS011;68858;48.642;9.142;2023-04-01T20:47:39;3.60;;;2.93;;
79403;SDS011;68858;48.642;9.142;2023-04-01T20:52:44;2.37;;;2.00;;
79403;SDS011;68858;48.642;9.142;2023-04-01T20:55:47;4.23;;;2.30;;
79403;SDS011;68858;48.642;9.142;2023-04-01T20:58:04;3.17;;;2.17;;
79403;SDS011;68858;48.642;9.142;2023-04-01T21:03:38;1.73;;;1.63;;
79403;SDS011;68858;48.642;9.142;2023-04-01T21:11:55;1.63;;;1.37;;
79403;SDS011;68858;48.642;9.142;2023-04-01T21:14:29;2.47;;;1.50;;
79403;SDS011;68858;48.642;9.142;2023-04-01T21:17:06;4.37;;;1.63;;
79403;SDS011;68858;48.642;9.142;2023-04-01T21:19:45;2.03;;;1.03;;
79403;SDS011;68858;48.642;9.142;2023-04-01T21:22:31;1.27;;;1.17;;
79403;SDS011;68858;48.642;9.142;2023-04-01T21:30:32;2.03;;;1.10;;
79403;SDS011;68858;48.642;9.142;2023-04-01T21:38:31;2.40;;;1.50;;
79403;SDS011;68858;48.642;9.142;2023-04-01T21:41:22;2.10;;;1.40;;
79403;SDS011;68858;48.642;9.142;2023-04-01T21:55:11;2.90;;;1.30;;
79403;SDS011;68858;48.642;9.142;2023-04-01T21:57:40;1.00;;;1.00;;
79403;SDS011;68858;48.642;9.142;2023-04-01T22:13:26;2.27;;;1.40;;
79403;SDS011;68858;48.642;9.142;2023-04-01T22:16:11;3.30;;;1.50;;
79403;SDS011;68858;48.642;9.142;2023-04-01T22:18:46;1.40;;;1.10;;
79403;SDS011;68858;48.642;9.142;2023-04-01T22:21:22;2.63;;;1.30;;
79403;SDS011;68858;48.642;9.142;2023-04-01T22:24:02;1.97;;;1.30;;
79403;SDS011;68858;48.642;9.142;2023-04-01T22:26:40;2.23;;;1.30;;
79403;SDS011;68858;48.642;9.142;2023-04-01T22:31:59;2.47;;;1.30;;
79403;SDS011;68858;48.642;9.142;2023-04-01T22:37:24;1.27;;;1.00;;
79403;SDS011;68858;48.642;9.142;2023-04-01T22:50:26;1.20;;;1.00;;
79403;SDS011;68858;48.642;9.142;2023-04-01T22:55:50;2.03;;;0.90;;
79403;SDS011;68858;48.642;9.142;2023-04-01T22:58:18;0.80;;;0.80;;
79403;SDS011;68858;48.642;9.142;2023-04-01T23:00:48;0.70;;;0.70;;
79403;SDS011;68858;48.642;9.142;2023-04-01T23:03:17;0.70;;;0.70;;
79403;SDS011;68858;48.642;9.142;2023-04-01T23:05:47;0.80;;;0.80;;
79403;SDS011;68858;48.642;9.142;2023-04-01T23:13:22;1.03;;;0.87;;